Time;durP1;ratioP1;P1;durP2;ratioP2;P2;SDS_P1;SDS_P2;PMS_P1;PMS_P2;Temp;Humidity;BMP_temperature;BMP_pressure;BME280_temperature;BME280_humidity;BME280_pressure;Samples;Min_cycle;Max_cycle;Signal;HPM_P1;HPM_P2
2023/01/02 00:00:32;;;;;;;13.82;8.77;;;9.40;99.90;;;;;;5042501;28;20603;-79
2023/01/02 00:02:58;;;;;;;12.85;8.35;;;9.40;99.90;;;;;;5056082;28;20033;-78
2023/01/02 00:05:24;;;;;;;15.32;8.50;;;9.40;99.90;;;;;;5078332;28;20112;-79
2023/01/02 00:07:51;;;;;;;13.70;8.82;;;9.40;99.90;;;;;;5066443;28;20037;-78
2023/01/02 00:10:17;;;;;;;13.75;7.57;;;9.40;99.90;;;;;;5053541;28;20530;-78
2023/01/02 00:12:43;;;;;;;13.52;7.95;;;9.40;99.90;;;;;;5025327;28;20028;-77
2023/01/02 00:15:09;;;;;;;16.65;8.60;;;9.40;99.90;;;;;;5068975;28;20036;-77
2023/01/02 00:17:35;;;;;;;13.10;7.57;;;9.40;99.90;;;;;;5064308;28;20041;-79
2023/01/02 00:20:01;;;;;;;14.73;8.07;;;9.40;99.90;;;;;;5045071;28;20029;-77
2023/01/02 00:22:26;;;;;;;14.45;8.48;;;9.30;99.90;;;;;;5054263;28;20777;-79
2023/01/02 00:24:53;;;;;;;15.75;8.10;;;9.30;99.90;;;;;;5055308;28;20059;-79
2023/01/02 00:27:19;;;;;;;13.85;7.82;;;9.40;99.90;;;;;;5065697;28;20025;-78
2023/01/02 00:29:45;;;;;;;14.30;8.13;;;9.40;99.90;;;;;;5050884;28;20036;-77
2023/01/02 00:32:11;;;;;;;11.07;7.30;;;9.40;99.90;;;;;;5053120;28;20120;-78
2023/01/02 00:34:37;;;;;;;14.13;7.88;;;9.40;99.90;;;;;;5044839;28;20052;-79
2023/01/02 00:37:03;;;;;;;13.85;7.65;;;9.30;99.90;;;;;;5042242;28;20032;-79
2023/01/02 00:39:29;;;;;;;15.02;7.93;;;9.30;99.90;;;;;;5036033;28;20029;-79
2023/01/02 00:41:55;;;;;;;13.00;8.05;;;9.20;99.90;;;;;;5070174;28;20557;-77
2023/01/02 00:44:21;;;;;;;13.32;7.25;;;9.10;99.90;;;;;;5058670;28;20040;-79
2023/01/02 00:46:47;;;;;;;15.40;8.00;;;9.10;99.90;;;;;;5038648;28;20102;-78
2023/01/02 00:49:13;;;;;;;14.63;8.45;;;9.10;99.90;;;;;;5044480;28;20029;-77
2023/01/02 00:51:39;;;;;;;15.43;8.68;;;9.10;99.90;;;;;;5076071;28;20035;-78
2023/01/02 00:54:05;;;;;;;12.93;8.35;;;9.10;99.90;;;;;;5057675;28;20025;-77
2023/01/02 00:56:32;;;;;;;13.65;7.63;;;9.10;99.90;;;;;;5036512;28;20037;-77
2023/01/02 00:58:58;;;;;;;12.73;7.70;;;9.10;99.90;;;;;;5037981;28;20101;-77
2023/01/02 01:01:24;;;;;;;13.50;8.25;;;9.10;99.90;;;;;;5054989;28;20032;-79
2023/01/02 01:03:50;;;;;;;13.32;7.15;;;9.10;99.90;;;;;;5041890;28;20094;-77
2023/01/02 01:06:16;;;;;;;11.15;6.80;;;9.00;99.90;;;;;;5050662;28;20025;-77
2023/01/02 01:08:42;;;;;;;15.68;7.35;;;9.00;99.90;;;;;;5066711;28;20057;-78
2023/01/02 01:11:11;;;;;;;11.75;7.00;;;9.00;99.90;;;;;;5067549;28;20032;-78
2023/01/02 01:13:38;;;;;;;11.77;7.13;;;9.00;99.90;;;;;;5050392;28;20550;-78
2023/01/02 01:16:16;;;;;;;11.32;6.97;;;9.10;99.90;;;;;;5062492;28;20481;-78
2023/01/02 01:18:42;;;;;;;11.95;6.05;;;9.20;99.90;;;;;;5044153;28;20067;-77
2023/01/02 01:21:19;;;;;;;13.30;6.60;;;9.20;99.90;;;;;;5068921;28;20032;-78
2023/01/02 01:23:49;;;;;;;11.43;6.80;;;9.30;99.90;;;;;;5070164;28;20043;-78
2023/01/02 01:26:16;;;;;;;13.18;7.25;;;9.40;99.90;;;;;;5067072;28;20068;-79
2023/01/02 01:28:42;;;;;;;12.65;7.30;;;9.40;99.90;;;;;;5022159;28;20036;-78
2023/01/02 01:31:11;;;;;;;12.52;7.13;;;9.30;99.90;;;;;;5066151;28;20421;-77
2023/01/02 01:33:40;;;;;;;10.95;7.05;;;9.40;99.90;;;;;;5055599;28;20491;-79
2023/01/02 01:36:09;;;;;;;12.02;7.55;;;9.30;99.90;;;;;;5068785;28;20032;-79
2023/01/02 01:38:36;;;;;;;9.30;6.68;;;9.40;99.90;;;;;;5059324;28;20128;-79
2023/01/02 01:41:05;;;;;;;14.00;6.90;;;9.30;99.90;;;;;;5067721;28;20032;-79
2023/01/02 01:43:43;;;;;;;11.25;6.80;;;9.30;99.90;;;;;;5073006;28;20085;-79
2023/01/02 01:46:22;;;;;;;11.70;7.38;;;9.20;99.90;;;;;;5064705;28;20040;-78
2023/01/02 01:49:12;;;;;;;12.20;6.80;;;9.20;99.90;;;;;;5061222;28;20666;-78
2023/01/02 01:51:48;;;;;;;12.70;7.32;;;9.30;99.90;;;;;;5064792;28;20047;-79
2023/01/02 01:54:16;;;;;;;;;;;9.30;99.90;;;;;;5078582;28;20040;-78
2023/01/02 01:56:49;;;;;;;10.30;6.40;;;9.20;99.90;;;;;;5051787;28;19934;-78
2023/01/02 01:59:16;;;;;;;11.40;6.30;;;9.20;99.90;;;;;;5069845;28;20036;-77
2023/01/02 02:01:43;;;;;;;9.90;6.30;;;9.20;99.90;;;;;;5072139;28;20127;-78
2023/01/02 02:04:12;;;;;;;11.35;6.65;;;9.20;99.90;;;;;;5049285;28;20024;-79
2023/01/02 02:06:38;;;;;;;10.02;5.88;;;9.20;99.90;;;;;;5040193;28;20645;-78
2023/01/02 02:09:19;;;;;;;12.18;6.55;;;9.20;99.90;;;;;;5072092;28;20072;-77
2023/01/02 02:11:46;;;;;;;9.40;5.88;;;9.20;99.90;;;;;;5073444;28;20102;-79
2023/01/02 02:14:12;;;;;;;9.52;5.82;;;9.20;99.90;;;;;;5074332;28;20393;-78
2023/01/02 02:16:59;;;;;;;8.95;5.97;;;9.10;99.90;;;;;;5039391;28;20128;-78
2023/01/02 02:20:13;;;;;;;11.73;6.68;;;9.10;99.90;;;;;;5068189;28;20032;-76
2023/01/02 02:22:44;;;;;;;9.85;7.10;;;9.10;99.90;;;;;;4955780;28;20075;-79
2023/01/02 02:25:38;;;;;;;13.35;6.75;;;9.10;99.90;;;;;;4951975;28;20043;-78
2023/01/02 02:28:19;;;;;;;12.85;6.72;;;9.00;99.90;;;;;;5034902;28;20473;-78
2023/01/02 02:30:54;;;;;;;10.50;6.10;;;9.10;99.90;;;;;;5057778;28;20023;-78
2023/01/02 02:33:46;;;;;;;;;;;9.10;99.90;;;;;;5051595;28;20095;-78
2023/01/02 02:36:16;;;;;;;13.70;6.63;;;9.00;99.90;;;;;;5068699;28;20519;-78
2023/01/02 02:39:16;;;;;;;10.95;6.80;;;9.00;99.90;;;;;;5065713;28;20017;-77
2023/01/02 02:41:45;;;;;;;12.85;7.15;;;8.90;99.90;;;;;;5063296;28;20029;-77
2023/01/02 02:44:24;;;;;;;11.73;6.80;;;8.90;99.90;;;;;;5061202;28;20040;-78
2023/01/02 02:47:26;;;;;;;11.77;7.05;;;8.90;99.90;;;;;;5053906;28;20082;-78
2023/01/02 02:50:10;;;;;;;10.43;7.22;;;8.90;99.90;;;;;;5056956;28;20497;-78
2023/01/02 02:52:39;;;;;;;12.32;7.05;;;8.80;99.90;;;;;;5071819;28;20094;-77
2023/01/02 02:55:14;;;;;;;12.27;8.02;;;8.70;99.90;;;;;;5068772;28;20066;-79
2023/01/02 02:57:43;;;;;;;12.50;7.33;;;8.70;99.90;;;;;;5046865;28;20033;-78
2023/01/02 03:00:14;;;;;;;11.85;7.03;;;8.60;99.90;;;;;;5044500;28;20039;-78
2023/01/02 03:02:40;;;;;;;13.52;7.38;;;8.60;99.90;;;;;;5056729;28;20645;-79
2023/01/02 03:05:10;;;;;;;11.63;6.95;;;8.70;99.90;;;;;;5074211;28;20051;-78
2023/01/02 03:07:52;;;;;;;11.15;7.00;;;8.70;99.90;;;;;;5066812;28;20111;-79
2023/01/02 03:10:37;;;;;;;10.90;7.00;;;8.70;99.90;;;;;;5067265;28;20033;-78
2023/01/02 03:13:12;;;;;;;12.93;7.82;;;8.70;99.90;;;;;;5076836;28;20021;-79
2023/01/02 03:16:00;;;;;;;11.83;7.17;;;8.70;99.90;;;;;;5057507;28;20024;-77
2023/01/02 03:18:56;;;;;;;14.70;7.10;;;8.70;99.90;;;;;;5036727;28;20120;-78
2023/01/02 03:22:13;;;;;;;9.43;6.50;;;8.70;99.90;;;;;;5039419;28;20037;-78
2023/01/02 03:24:41;;;;;;;10.50;6.65;;;8.60;99.90;;;;;;5059595;28;20080;-78
2023/01/02 03:27:16;;;;;;;14.65;7.18;;;8.60;99.90;;;;;;5068399;28;20039;-78
2023/01/02 03:30:09;;;;;;;11.45;6.95;;;8.50;99.90;;;;;;5057582;28;20615;-79
2023/01/02 03:33:02;;;;;;;10.55;6.82;;;8.50;99.90;;;;;;5062744;28;20044;-77
2023/01/02 03:35:44;;;;;;;15.13;7.28;;;8.50;99.90;;;;;;5072065;28;20077;-78
2023/01/02 03:38:18;;;;;;;10.80;7.00;;;8.50;99.90;;;;;;5065578;28;20037;-77
2023/01/02 03:40:52;;;;;;;9.98;6.72;;;8.50;99.90;;;;;;5060200;28;20058;-79
2023/01/02 03:43:24;;;;;;;10.82;6.22;;;8.50;99.90;;;;;;5073456;28;20044;-78
2023/01/02 03:45:59;;;;;;;13.02;6.55;;;8.50;99.90;;;;;;5051040;28;20097;-78
2023/01/02 03:48:30;;;;;;;;;;;8.50;99.90;;;;;;5082646;28;20028;-78
2023/01/02 03:50:59;;;;;;;11.60;7.10;;;8.50;99.90;;;;;;5074794;28;20370;-79
2023/01/02 03:53:27;;;;;;;11.52;6.28;;;8.50;99.90;;;;;;5058930;28;20066;-77
2023/01/02 03:56:11;;;;;;;12.57;6.40;;;8.40;99.90;;;;;;5043611;28;20028;-78
2023/01/02 03:58:49;;;;;;;9.70;5.80;;;8.40;99.90;;;;;;5058076;28;20029;-78
2023/01/02 04:01:27;;;;;;;12.65;7.13;;;8.40;99.90;;;;;;5068269;28;20040;-79
2023/01/02 04:04:14;;;;;;;10.35;6.05;;;8.40;99.90;;;;;;5074709;28;20032;-76
2023/01/02 04:06:44;;;;;;;13.00;6.88;;;8.30;99.90;;;;;;5045444;28;20032;-78
2023/01/02 04:09:18;;;;;;;10.90;6.68;;;8.30;99.90;;;;;;5068779;28;20028;-79
2023/01/02 04:11:51;;;;;;;11.52;7.05;;;8.20;99.90;;;;;;5054610;28;20657;-79
2023/01/02 04:14:33;;;;;;;13.70;6.53;;;8.20;99.90;;;;;;5079990;28;20043;-78
2023/01/02 04:17:01;;;;;;;11.15;6.88;;;8.20;99.90;;;;;;5069670;28;20039;-78
2023/01/02 04:19:42;;;;;;;14.30;7.38;;;8.20;99.90;;;;;;5059633;28;20453;-79
2023/01/02 04:22:16;;;;;;;14.77;6.43;;;8.10;99.90;;;;;;5068298;28;20056;-77
2023/01/02 04:24:52;;;;;;;13.13;7.22;;;8.10;99.90;;;;;;5067003;28;20029;-79
2023/01/02 04:27:26;;;;;;;11.25;6.72;;;8.10;99.90;;;;;;5060859;28;20035;-78
2023/01/02 04:29:52;;;;;;;12.95;6.97;;;8.10;99.90;;;;;;5054757;28;20491;-79
2023/01/02 04:32:26;;;;;;;13.32;6.72;;;8.00;99.90;;;;;;5022074;28;20032;-79
2023/01/02 04:34:53;;;;;;;11.00;6.78;;;8.00;99.90;;;;;;5064287;28;20040;-79
2023/01/02 04:37:28;;;;;;;10.60;6.82;;;7.90;99.90;;;;;;5053050;28;20040;-78
2023/01/02 04:39:58;;;;;;;10.73;6.70;;;7.90;99.90;;;;;;5060781;28;20032;-77
2023/01/02 04:42:24;;;;;;;12.43;6.68;;;7.90;99.90;;;;;;5049440;28;20032;-77
2023/01/02 04:44:50;;;;;;;9.65;6.40;;;7.80;99.90;;;;;;5068244;28;20047;-79
2023/01/02 04:47:16;;;;;;;12.45;7.03;;;7.80;99.90;;;;;;5067481;28;20052;-78
2023/01/02 04:49:42;;;;;;;12.73;7.30;;;7.80;99.90;;;;;;5061501;28;20037;-78
2023/01/02 04:52:08;;;;;;;13.45;7.70;;;7.80;99.90;;;;;;5066083;28;20089;-79
2023/01/02 04:54:35;;;;;;;13.00;6.95;;;7.70;99.90;;;;;;5067838;28;20116;-78
2023/01/02 04:57:01;;;;;;;13.35;7.93;;;7.70;99.90;;;;;;5051460;28;20037;-79
2023/01/02 04:59:26;;;;;;;12.80;7.35;;;7.70;99.90;;;;;;5055222;28;20055;-78
2023/01/02 05:01:53;;;;;;;13.02;7.28;;;7.70;99.90;;;;;;5064004;28;20040;-78
2023/01/02 05:04:19;;;;;;;11.95;7.05;;;7.70;99.90;;;;;;5050151;28;20094;-78
2023/01/02 05:06:45;;;;;;;12.32;7.13;;;7.70;99.90;;;;;;5062831;28;20043;-78
2023/01/02 05:09:11;;;;;;;13.00;8.00;;;7.60;99.90;;;;;;5062484;28;20531;-78
2023/01/02 05:11:37;;;;;;;11.65;7.25;;;7.60;99.90;;;;;;5072419;28;20150;-78
2023/01/02 05:14:03;;;;;;;11.40;6.90;;;7.60;99.90;;;;;;5037054;28;20085;-78
2023/01/02 05:16:29;;;;;;;13.38;8.02;;;7.60;99.90;;;;;;5067661;28;20033;-78
2023/01/02 05:18:55;;;;;;;11.10;7.18;;;7.50;99.90;;;;;;5055457;28;20032;-77
2023/01/02 05:24:06;;;;;;;10.57;7.00;;;7.50;99.90;;;;;;5069012;28;20568;-78
2023/01/02 05:26:32;;;;;;;11.43;7.57;;;7.50;99.90;;;;;;5034757;28;20150;-78
2023/01/02 05:28:59;;;;;;;11.55;6.78;;;7.50;99.90;;;;;;5074577;28;20032;-78
2023/01/02 05:31:26;;;;;;;11.73;7.50;;;7.50;99.90;;;;;;5051496;28;20447;-78
2023/01/02 05:33:56;;;;;;;13.02;7.60;;;7.50;99.90;;;;;;5053954;28;20033;-79
2023/01/02 05:36:23;;;;;;;13.18;7.93;;;7.50;99.90;;;;;;5047801;28;20033;-78
2023/01/02 05:38:49;;;;;;;11.15;7.50;;;7.50;99.90;;;;;;5059656;28;20478;-78
2023/01/02 05:41:16;;;;;;;12.40;7.47;;;7.50;99.90;;;;;;5066597;28;20035;-78
2023/01/02 05:43:41;;;;;;;12.05;7.78;;;7.50;99.90;;;;;;5066260;28;20033;-78
2023/01/02 05:46:19;;;;;;;11.32;7.13;;;7.50;99.90;;;;;;5066631;28;20040;-77
2023/01/02 05:48:45;;;;;;;11.43;6.88;;;7.50;99.90;;;;;;5062365;28;20031;-78
2023/01/02 05:51:13;;;;;;;11.73;7.03;;;7.50;99.90;;;;;;5040706;28;20060;-78
2023/01/02 05:53:40;;;;;;;13.68;7.43;;;7.50;99.90;;;;;;5063032;28;20381;-78
2023/01/02 05:56:12;;;;;;;11.73;7.38;;;7.50;99.90;;;;;;5064948;28;20025;-78
2023/01/02 05:58:40;;;;;;;13.90;8.23;;;7.50;99.90;;;;;;5064853;28;20037;-78
2023/01/02 06:01:12;;;;;;;10.30;7.35;;;7.50;99.90;;;;;;5054045;28;20084;-78
2023/01/02 06:03:38;;;;;;;10.43;7.15;;;7.50;99.90;;;;;;5072805;28;20588;-78
2023/01/02 06:06:05;;;;;;;12.38;7.63;;;7.50;99.90;;;;;;5071308;28;20058;-78
2023/01/02 06:08:31;;;;;;;13.90;7.75;;;7.50;99.90;;;;;;5059216;28;20036;-79
2023/01/02 06:10:57;;;;;;;12.57;6.70;;;7.40;99.90;;;;;;5065709;28;20345;-79
2023/01/02 06:13:24;;;;;;;11.65;7.15;;;7.40;99.90;;;;;;5055178;28;20029;-79
2023/01/02 06:15:50;;;;;;;13.93;7.90;;;7.40;99.90;;;;;;5056162;28;20643;-78
2023/01/02 06:18:16;;;;;;;11.05;7.22;;;7.40;99.90;;;;;;5050456;28;20104;-79
2023/01/02 06:20:42;;;;;;;10.38;6.82;;;7.40;99.90;;;;;;5077938;28;20029;-79
2023/01/02 06:23:08;;;;;;;12.13;7.20;;;7.40;99.90;;;;;;5071133;28;20028;-79
2023/01/02 06:25:34;;;;;;;12.02;7.95;;;7.40;99.90;;;;;;5057439;28;20028;-78
2023/01/02 06:28:00;;;;;;;16.55;8.27;;;7.40;99.90;;;;;;5037052;28;20040;-78
2023/01/02 06:30:26;;;;;;;11.95;7.70;;;7.40;99.90;;;;;;5063495;28;20024;-78
2023/01/02 06:32:52;;;;;;;14.60;7.90;;;7.40;99.90;;;;;;5072328;28;20128;-78
2023/01/02 06:35:18;;;;;;;13.18;7.82;;;7.40;99.90;;;;;;5066705;28;20025;-79
2023/01/02 06:37:44;;;;;;;12.52;7.32;;;7.40;99.90;;;;;;5046203;28;20060;-79
2023/01/02 06:40:11;;;;;;;10.15;6.53;;;7.30;99.90;;;;;;5035087;28;20592;-79
2023/01/02 06:42:36;;;;;;;13.18;7.35;;;7.40;99.90;;;;;;5071977;28;20052;-78
2023/01/02 06:45:04;;;;;;;10.93;6.88;;;7.40;99.90;;;;;;5066393;28;20101;-78
2023/01/02 06:47:30;;;;;;;11.20;6.80;;;7.40;99.90;;;;;;5040199;28;20389;-78
2023/01/02 06:49:55;;;;;;;13.00;7.43;;;7.30;99.90;;;;;;5054355;28;20040;-78
2023/01/02 06:52:22;;;;;;;10.68;6.55;;;7.30;99.90;;;;;;5054825;28;20107;-77
2023/01/02 06:54:48;;;;;;;10.93;6.97;;;7.30;99.90;;;;;;5049793;28;20025;-78
2023/01/02 06:57:14;;;;;;;11.45;6.88;;;7.30;99.90;;;;;;5060850;28;20107;-78
2023/01/02 06:59:40;;;;;;;13.15;7.68;;;7.30;99.90;;;;;;5052048;28;20031;-78
2023/01/02 07:02:09;;;;;;;12.23;7.95;;;7.20;99.90;;;;;;5078306;28;20077;-78
2023/01/02 07:04:35;;;;;;;11.88;7.05;;;7.20;99.90;;;;;;5067448;28;20079;-81
2023/01/02 07:07:01;;;;;;;11.80;7.50;;;7.30;99.90;;;;;;5056903;28;20039;-79
2023/01/02 07:09:27;;;;;;;12.90;7.82;;;7.20;99.90;;;;;;5057899;28;20041;-78
2023/01/02 07:11:54;;;;;;;10.70;7.07;;;7.20;99.90;;;;;;5072208;28;20625;-79
2023/01/02 07:14:19;;;;;;;12.82;7.22;;;7.20;99.90;;;;;;5043217;28;20052;-79
2023/01/02 07:16:45;;;;;;;11.52;7.68;;;7.20;99.90;;;;;;5077803;28;20033;-79
2023/01/02 07:19:11;;;;;;;12.27;7.72;;;7.30;99.90;;;;;;5045331;28;20032;-79
2023/01/02 07:21:37;;;;;;;13.82;8.07;;;7.20;99.90;;;;;;5038880;28;20537;-79
2023/01/02 07:24:04;;;;;;;9.88;7.00;;;7.20;99.90;;;;;;5040520;28;20055;-78
2023/01/02 07:26:30;;;;;;;12.40;7.57;;;7.20;99.90;;;;;;5045743;28;20544;-79
2023/01/02 07:28:56;;;;;;;11.07;7.57;;;7.10;99.90;;;;;;5060631;28;20033;-79
2023/01/02 07:31:22;;;;;;;11.68;6.93;;;7.10;99.90;;;;;;5058537;28;20068;-78
2023/01/02 07:33:49;;;;;;;12.45;7.68;;;7.10;99.90;;;;;;5070091;28;20114;-78
2023/01/02 07:36:18;;;;;;;11.77;7.07;;;7.10;99.90;;;;;;5067585;28;20031;-78
2023/01/02 07:38:52;;;;;;;16.92;8.68;;;7.20;99.90;;;;;;5067945;28;20171;-78
2023/01/02 07:41:20;;;;;;;12.88;7.30;;;7.20;99.90;;;;;;5070770;28;20051;-79
2023/01/02 07:43:47;;;;;;;12.70;7.90;;;7.20;99.90;;;;;;5075526;28;20032;-78
2023/01/02 07:46:15;;;;;;;11.50;7.18;;;7.10;99.90;;;;;;5069200;28;20032;-78
2023/01/02 07:48:41;;;;;;;13.52;7.50;;;7.20;99.90;;;;;;5066310;28;20029;-79
2023/01/02 07:51:07;;;;;;;12.52;7.78;;;7.20;99.90;;;;;;5073929;28;20135;-79
2023/01/02 07:53:34;;;;;;;12.27;7.85;;;7.20;99.90;;;;;;5077742;28;20115;-78
2023/01/02 07:56:01;;;;;;;13.48;7.88;;;7.20;99.90;;;;;;5075013;28;20024;-78
2023/01/02 07:58:28;;;;;;;12.75;8.05;;;7.30;99.90;;;;;;5080185;28;20477;-79
2023/01/02 08:00:54;;;;;;;12.50;7.95;;;7.30;99.90;;;;;;5055478;28;20082;-79
2023/01/02 08:03:20;;;;;;;12.10;7.63;;;7.30;99.90;;;;;;5043650;28;20047;-79
2023/01/02 08:05:47;;;;;;;11.32;7.47;;;7.40;99.90;;;;;;5076103;28;20024;-79
2023/01/02 08:08:13;;;;;;;13.02;7.50;;;7.30;99.90;;;;;;5060832;28;20056;-78
2023/01/02 08:10:39;;;;;;;10.52;7.10;;;7.30;99.90;;;;;;5073882;28;20056;-78
2023/01/02 08:13:06;;;;;;;13.77;7.55;;;7.30;99.90;;;;;;5049438;28;20549;-78
2023/01/02 08:15:33;;;;;;;10.98;7.28;;;7.40;99.90;;;;;;5051485;28;20035;-79
2023/01/02 08:17:59;;;;;;;10.68;7.25;;;7.40;99.90;;;;;;5071898;28;20041;-79
2023/01/02 08:20:25;;;;;;;12.05;6.80;;;7.40;99.90;;;;;;5051366;28;20075;-78
2023/01/02 08:22:54;;;;;;;11.68;7.15;;;7.40;99.90;;;;;;5069844;28;20472;-78
2023/01/02 08:25:20;;;;;;;10.35;6.43;;;7.40;99.90;;;;;;5070182;28;20017;-78
2023/01/02 08:27:46;;;;;;;10.63;6.93;;;7.40;99.90;;;;;;5061672;28;20024;-81
2023/01/02 08:30:12;;;;;;;13.18;7.38;;;7.40;99.90;;;;;;5053123;28;20035;-79
2023/01/02 08:32:38;;;;;;;12.57;7.70;;;7.40;99.90;;;;;;5053274;28;20119;-80
2023/01/02 08:35:06;;;;;;;12.93;7.93;;;7.40;99.90;;;;;;5072697;28;20449;-79
2023/01/02 08:37:32;;;;;;;11.20;6.93;;;7.40;99.90;;;;;;5073614;28;20456;-79
2023/01/02 08:39:58;;;;;;;12.50;7.63;;;7.40;99.90;;;;;;5082192;28;20040;-81
2023/01/02 08:42:24;;;;;;;11.13;7.55;;;7.50;99.90;;;;;;5072446;28;20029;-78
2023/01/02 08:44:50;;;;;;;12.45;7.70;;;7.60;99.90;;;;;;5059792;28;20074;-80
2023/01/02 08:47:16;;;;;;;12.68;7.90;;;7.60;99.90;;;;;;5074534;28;20025;-77
2023/01/02 08:49:42;;;;;;;10.73;7.80;;;7.60;99.90;;;;;;5054630;28;20389;-78
2023/01/02 08:52:08;;;;;;;13.98;7.82;;;7.60;99.90;;;;;;5065939;28;20128;-78
2023/01/02 08:54:35;;;;;;;12.27;7.45;;;7.70;99.90;;;;;;5041649;28;20071;-79
2023/01/02 08:57:01;;;;;;;15.88;8.85;;;7.70;99.90;;;;;;5068931;28;20059;-78
2023/01/02 08:59:27;;;;;;;14.27;8.02;;;7.80;99.90;;;;;;5056215;28;20024;-78
2023/01/02 09:01:53;;;;;;;12.65;7.65;;;7.90;99.90;;;;;;5044990;28;20032;-77
2023/01/02 09:04:19;;;;;;;15.10;7.90;;;7.90;99.90;;;;;;5017460;28;20573;-77
2023/01/02 09:06:45;;;;;;;13.77;7.80;;;7.90;99.90;;;;;;5053069;28;20024;-77
2023/01/02 09:09:13;;;;;;;11.93;7.20;;;7.90;99.90;;;;;;5061635;28;20095;-77
2023/01/02 09:11:45;;;;;;;12.98;7.43;;;7.90;99.90;;;;;;5033483;28;20111;-77
2023/01/02 09:14:11;;;;;;;11.93;7.95;;;8.00;99.90;;;;;;5050162;28;20054;-77
2023/01/02 09:16:37;;;;;;;13.30;7.85;;;7.90;99.90;;;;;;5047652;28;20177;-77
2023/01/02 09:19:03;;;;;;;10.85;7.43;;;8.00;99.90;;;;;;5056292;28;20047;-78
2023/01/02 09:21:29;;;;;;;11.57;6.78;;;8.00;99.90;;;;;;5045504;28;20039;-78
2023/01/02 09:23:55;;;;;;;15.02;7.32;;;8.10;99.90;;;;;;5047306;28;20029;-78
2023/01/02 09:26:21;;;;;;;13.05;7.60;;;8.20;99.90;;;;;;5066871;28;20055;-76
2023/01/02 09:28:46;;;;;;;10.38;6.78;;;8.10;99.90;;;;;;5044085;28;20437;-78
2023/01/02 09:31:15;;;;;;;12.45;7.53;;;8.20;99.90;;;;;;5063303;28;20040;-78
2023/01/02 09:33:42;;;;;;;15.27;7.07;;;8.20;99.90;;;;;;5050459;28;20040;-77
2023/01/02 09:36:11;;;;;;;12.77;7.03;;;8.30;99.90;;;;;;5052889;28;20035;-77
2023/01/02 09:38:37;;;;;;;12.02;7.55;;;8.40;99.90;;;;;;5066335;28;20511;-78
2023/01/02 09:41:18;;;;;;;11.90;7.35;;;8.40;99.90;;;;;;5065521;28;20036;-77
2023/01/02 09:43:52;;;;;;;11.82;6.80;;;8.40;99.90;;;;;;5065154;28;20039;-77
2023/01/02 09:46:29;;;;;;;12.45;7.07;;;8.50;99.90;;;;;;5061293;28;20067;-77
2023/01/02 09:48:55;;;;;;;12.18;7.30;;;8.60;99.90;;;;;;5075948;28;20023;-77
2023/01/02 09:51:21;;;;;;;12.27;7.10;;;8.60;99.90;;;;;;5048170;28;20028;-78
2023/01/02 09:53:47;;;;;;;12.43;7.20;;;8.60;99.90;;;;;;5049404;28;20039;-77
2023/01/02 09:56:21;;;;;;;11.07;6.97;;;8.70;99.90;;;;;;5053432;28;20039;-77
2023/01/02 09:58:47;;;;;;;9.70;6.55;;;8.80;99.90;;;;;;5033985;28;20082;-78
2023/01/02 10:01:49;;;;;;;11.88;7.15;;;8.80;99.90;;;;;;5053582;28;20027;-78
2023/01/02 10:04:20;;;;;;;9.73;6.40;;;8.90;99.90;;;;;;5055977;28;20432;-78
2023/01/02 10:07:02;;;;;;;11.25;6.88;;;9.00;99.90;;;;;;5055035;28;20044;-78
2023/01/02 10:09:58;;;;;;;10.13;6.07;;;9.10;99.90;;;;;;5075662;28;20028;-78
2023/01/02 10:12:36;;;;;;;9.65;6.15;;;9.10;99.90;;;;;;5052416;28;20459;-77
2023/01/02 10:15:06;;;;;;;12.00;6.15;;;9.20;99.90;;;;;;5072710;28;20027;-78
2023/01/02 10:17:36;;;;;;;10.48;6.22;;;9.30;99.90;;;;;;5063177;28;20028;-78
2023/01/02 10:20:02;;;;;;;12.93;6.55;;;9.30;99.90;;;;;;5090028;28;20095;-78
2023/01/02 10:22:42;;;;;;;9.75;6.28;;;9.40;99.90;;;;;;5056760;28;20093;-77
2023/01/02 10:25:26;;;;;;;9.48;6.20;;;9.50;99.90;;;;;;5066046;28;20036;-77
2023/01/02 10:28:15;;;;;;;13.38;6.93;;;9.60;99.90;;;;;;5052966;28;20401;-78
2023/01/02 10:30:47;;;;;;;11.20;6.25;;;9.60;99.90;;;;;;5027236;28;20052;-77
2023/01/02 10:33:23;;;;;;;9.35;6.90;;;9.70;99.90;;;;;;5066334;28;20036;-78
2023/01/02 10:35:54;;;;;;;9.18;6.00;;;9.80;99.90;;;;;;5076860;28;20027;-77
2023/01/02 10:38:21;;;;;;;9.52;6.05;;;9.80;99.90;;;;;;5039500;28;20040;-78
2023/01/02 10:40:49;;;;;;;10.32;6.70;;;9.90;99.90;;;;;;5071513;28;20046;-76
2023/01/02 10:43:16;;;;;;;9.52;6.70;;;10.00;99.90;;;;;;5064036;28;20033;-76
2023/01/02 10:45:43;;;;;;;9.90;5.85;;;9.90;99.90;;;;;;5056446;28;20078;-77
2023/01/02 10:48:10;;;;;;;11.93;7.32;;;10.00;99.90;;;;;;5055877;28;20036;-76
2023/01/02 10:50:41;;;;;;;10.50;6.47;;;10.10;99.90;;;;;;5069829;28;20117;-76
2023/01/02 10:53:21;;;;;;;9.18;6.35;;;10.10;99.90;;;;;;5067886;28;20393;-76
2023/01/02 10:55:48;;;;;;;9.23;6.13;;;10.10;99.90;;;;;;5075423;28;20028;-75
2023/01/02 10:58:26;;;;;;;14.18;6.85;;;10.10;99.90;;;;;;5061401;28;20024;-77
2023/01/02 11:01:17;;;;;;;10.10;6.18;;;10.00;99.90;;;;;;5047543;28;20032;-77
2023/01/02 11:03:47;;;;;;;8.65;5.85;;;10.00;99.90;;;;;;5041768;28;20036;-77
2023/01/02 11:06:31;;;;;;;10.55;6.15;;;10.00;99.90;;;;;;5054906;28;20043;-76
2023/01/02 11:09:28;;;;;;;10.20;6.63;;;10.00;99.90;;;;;;5060389;28;20032;-75
2023/01/02 11:11:55;;;;;;;;;;;10.10;99.90;;;;;;5053961;28;20043;-77
2023/01/02 11:14:25;;;;;;;11.18;6.70;;;10.10;99.90;;;;;;5061872;28;19917;-79
2023/01/02 11:16:53;;;;;;;9.05;5.68;;;10.10;99.90;;;;;;5055845;28;20036;-78
2023/01/02 11:19:21;;;;;;;8.18;5.68;;;10.10;99.90;;;;;;5070381;28;20037;-76
2023/01/02 11:21:48;;;;;;;12.25;6.72;;;10.00;99.90;;;;;;5070166;28;20023;-79
2023/01/02 11:24:18;;;;;;;11.98;6.47;;;10.10;99.90;;;;;;5059458;28;20052;-79
2023/01/02 11:26:47;;;;;;;10.00;6.40;;;10.10;99.90;;;;;;5071210;28;20021;-78
2023/01/02 11:29:15;;;;;;;10.40;6.50;;;10.20;99.90;;;;;;5054959;28;20060;-79
2023/01/02 11:31:50;;;;;;;10.13;6.75;;;10.30;99.90;;;;;;5057706;28;20045;-79
2023/01/02 11:34:31;;;;;;;8.13;5.40;;;10.40;99.90;;;;;;5054660;28;20034;-79
2023/01/02 11:37:16;;;;;;;8.95;5.75;;;10.40;99.90;;;;;;5063638;28;20033;-79
2023/01/02 11:39:55;;;;;;;12.27;5.95;;;10.50;99.90;;;;;;5063554;28;20661;-79
2023/01/02 11:45:31;;;;;;;10.15;6.07;;;10.50;99.90;;;;;;5073382;28;20701;-79
2023/01/02 11:48:01;;;;;;;7.60;5.15;;;10.50;99.90;;;;;;5059997;28;20032;-78
2023/01/02 11:50:35;;;;;;;8.65;5.22;;;10.60;99.90;;;;;;5075869;28;20116;-77
2023/01/02 11:53:06;;;;;;;8.70;5.40;;;10.70;99.90;;;;;;5057505;28;20035;-78
2023/01/02 11:55:57;;;;;;;6.85;4.72;;;10.70;99.90;;;;;;5054767;28;20016;-78
2023/01/02 11:58:32;;;;;;;11.55;7.25;;;10.80;99.90;;;;;;5073841;28;20025;-78
2023/01/02 12:01:23;;;;;;;9.93;5.90;;;10.90;99.90;;;;;;5064116;28;20036;-78
2023/01/02 12:03:49;;;;;;;8.07;5.05;;;11.00;99.90;;;;;;5061690;28;20078;-78
2023/01/02 12:06:18;;;;;;;7.35;4.85;;;11.00;99.90;;;;;;5055556;28;20024;-77
2023/01/02 12:09:18;;;;;;;6.32;4.40;;;11.10;99.90;;;;;;5054280;28;20040;-78
2023/01/02 12:12:00;;;;;;;8.65;4.57;;;11.20;99.90;;;;;;5072853;28;20032;-78
2023/01/02 12:14:46;;;;;;;6.32;4.70;;;11.30;99.90;;;;;;5032148;28;20047;-77
2023/01/02 12:17:26;;;;;;;7.55;5.40;;;11.40;99.90;;;;;;5069324;28;20036;-77
2023/01/02 12:20:16;;;;;;;9.55;6.20;;;11.50;99.90;;;;;;5062145;28;20159;-77
2023/01/02 12:23:11;;;;;;;7.55;4.57;;;11.50;99.90;;;;;;5049695;28;20044;-76
2023/01/02 12:26:07;;;;;;;6.93;4.72;;;11.50;99.90;;;;;;5034546;28;20382;-78
2023/01/02 12:28:56;;;;;;;9.53;4.77;;;11.40;99.90;;;;;;5031947;28;20107;-77
2023/01/02 12:31:43;;;;;;;11.05;5.22;;;11.50;99.90;;;;;;5064883;28;20290;-78
2023/01/02 12:34:30;;;;;;;8.63;5.40;;;11.50;99.90;;;;;;5058886;28;20439;-77
2023/01/02 12:37:01;;;;;;;7.97;5.00;;;11.50;99.90;;;;;;5062142;28;20111;-78
2023/01/02 12:39:38;;;;;;;9.95;5.38;;;11.60;99.90;;;;;;5058445;28;20020;-78
2023/01/02 12:42:14;;;;;;;8.40;4.35;;;11.50;99.90;;;;;;5062013;28;20111;-77
2023/01/02 12:44:52;;;;;;;12.10;6.97;;;11.50;99.90;;;;;;5060728;28;20033;-77
2023/01/02 12:47:29;;;;;;;6.22;4.38;;;11.60;99.90;;;;;;5060567;28;20021;-77
2023/01/02 12:50:35;;;;;;;6.60;3.03;;;11.60;99.90;;;;;;5061619;28;20026;-77
2023/01/02 12:53:34;;;;;;;;;;;11.70;99.90;;;;;;5060320;28;20036;-77
2023/01/02 12:56:22;;;;;;;4.00;2.70;;;11.80;99.90;;;;;;5043616;28;20019;-76
2023/01/02 12:59:02;;;;;;;5.05;2.53;;;11.90;99.90;;;;;;5063130;28;20550;-77
2023/01/02 13:01:37;;;;;;;4.68;2.28;;;11.90;99.90;;;;;;5061410;28;20029;-79
2023/01/02 13:04:18;;;;;;;;;;;12.00;99.90;;;;;;5062627;28;20035;-78
2023/01/02 13:07:22;;;;;;;4.13;2.05;;;12.00;99.90;;;;;;5063202;28;19918;-80
2023/01/02 13:09:49;;;;;;;5.32;1.75;;;12.00;99.90;;;;;;5068073;28;20035;-80
2023/01/02 13:12:18;;;;;;;4.05;1.77;;;12.10;99.90;;;;;;5046611;28;20733;-78
2023/01/02 13:15:22;;;;;;;5.50;2.30;;;12.10;99.90;;;;;;5062225;28;20389;-80
2023/01/02 13:17:49;;;;;;;4.70;2.17;;;12.20;99.90;;;;;;5056956;28;20524;-80